Flight Track Log - Related Links

Times and Time Zones

All times are in EDT time to prevent confusion due to time zone crossing. See the ASQ6130 flight status page for this flight to view local times or setup timezone preferences in your user account.

Time Position Orientation Groundspeed Altitude Reporting Facility
EDT Latitude Longitude Course Direction KTS MPH feet Rate Location/Type
Sun 01:47:00 PM 46.1357 -103.0005 182° South  Level Estimated
Sun 01:48:00 PM 46.0254 -103.0331 180° South  Level Estimated
Sun 01:49:00 PM 45.9274 -102.9533 150° Southeast  Level FlightAware
Sun 01:50:00 PM 45.8174 -102.9878 184° South  Level Estimated
Sun 01:51:00 PM 45.7137 -102.9251 157° South  Level FlightAware
Sun 01:52:00 PM 45.6039 -102.9612 184° South  Level Estimated
Sun 01:53:00 PM 45.4942 -102.9971 180° South  Level Estimated
Sun 01:54:00 PM 45.3844 -103.0330 185° South  Level Estimated
Sun 01:55:00 PM 45.2774 -102.9833 162° South  Level FlightAware
Sun 01:56:00 PM 45.1679 -103.0206 180° South  Level Estimated
Sun 01:57:00 PM 45.0584 -103.0578 184° South  Level Estimated
Sun 01:58:00 PM 44.9489 -103.0948 183° South  Level Estimated
Sun 01:59:00 PM 44.8366 -103.0838 176° South  Level FlightAware
Sun 02:00:00 PM 44.7242 -103.0729 176° South  Level FlightAware
Sun 02:01:00 PM 44.6119 -103.0619 176° South  Level FlightAware
Sun 02:02:00 PM 44.4996 -103.0511 176° South  Level FlightAware
Sun 02:03:00 PM 44.3872 -103.0402 176° South  Level FlightAware
Sun 02:04:00 PM 44.2749 -103.0294 176° South  Level FlightAware
Sun 02:05:00 PM 44.1626 -103.0187 176° South  Level FlightAware
Sun 02:06:00 PM 44.0502 -103.0079 176° South  Level FlightAware
Sun 02:07:00 PM 43.9425 -103.0537 190° South  Level Estimated
Sun 02:08:00 PM 43.8310 -103.0752 188° South  Level FlightAware
Sun 02:09:00 PM 43.7195 -103.0966 188° South  Level FlightAware
Sun 02:10:00 PM 43.6079 -103.1179 188° South  Level FlightAware
Sun 02:11:00 PM 43.4964 -103.1391 188° South  Level FlightAware
Sun 02:12:00 PM 43.3848 -103.1602 188° South  Level FlightAware
Sun 02:13:00 PM 43.2733 -103.1813 188° South  Level FlightAware
Sun 02:14:00 PM 43.1617 -103.2023 188° South  Level FlightAware
Sun 02:15:00 PM 43.0502 -103.2232 188° South  Level FlightAware
Sun 02:16:00 PM 42.9386 -103.2440 188° South  Level FlightAware
Sun 02:17:00 PM 42.8326 -103.2957 189° South  Level Estimated
Sun 02:18:00 PM 42.7210 -103.3161 188° South  Level FlightAware
Sun 02:19:00 PM 42.6093 -103.3364 188° South  Level FlightAware
Sun 02:19:39 PM 46.6794 -102.7311 171° South 221 254 8,800  Level Minneapolis Center
Sun 02:20:00 PM 42.4977 -103.3566 188° South  Level FlightAware
Sun 02:20:41 PM 46.6047 -102.7403 185° South 238 274 11,000  Level Minneapolis Center
Sun 02:21:00 PM 42.3861 -103.3768 188° South  Level FlightAware
Sun 02:21:43 PM 46.5117 -102.7567 187° South 288 331 12,500  Level Minneapolis Center
Sun 02:22:00 PM 42.2745 -103.3968 188° South  Level FlightAware
Sun 02:22:45 PM 46.4067 -102.7775 188° South 355 409 14,100  Level Minneapolis Center
Sun 02:23:00 PM 42.1629 -103.4168 188° South  Level FlightAware
Sun 02:23:47 PM 46.2983 -102.7919 185° South 381 438 15,800  Level Minneapolis Center
Sun 02:24:49 PM 46.1631 -102.8125 186° South 401 461 18,000 1,935 Climbing Minneapolis Center
Sun 02:25:51 PM 46.0489 -102.8286 186° South 408 470 19,800 1,790 Climbing Minneapolis Center
Sun 02:26:53 PM 45.9353 -102.8461 186° South 411 473 21,700 1,839 Climbing Minneapolis Center
Sun 02:27:55 PM 45.8208 -102.8636 186° South 413 475 23,600 1,872 Climbing Minneapolis Center
Sun 02:28:58 PM 45.7094 -102.8728 183° South 407 468 25,600 1,584 Climbing Minneapolis Center
Sun 02:30:00 PM 45.5967 -102.8908 186° South 406 467 26,900 1,306 Climbing Minneapolis Center
Sun 02:31:02 PM 45.4675 -102.9344 193° South 417 480 28,300 1,500 Climbing Minneapolis Center
Sun 02:32:04 PM 45.3492 -102.9578 188° South 425 489 30,000 1,306 Climbing Minneapolis Center
Sun 02:33:06 PM 45.2308 -102.9750 186° South 427 491 31,000 484 Climbing Minneapolis Center
Sun 02:34:08 PM 45.0783 -102.9994 186° South 452 520 31,000  Level Minneapolis Center
Sun 02:35:10 PM 44.9417 -103.0222 187° South 482 555 31,000  Level Minneapolis Center
Sun 02:36:09 PM 44.8078 -103.0444 187° South 491 565 31,000  Level Denver Center
Sun 02:37:11 PM 44.6736 -103.0642 186° South 488 562 31,000  Level Denver Center
Sun 02:38:13 PM 44.5389 -103.0850 186° South 488 562 31,000  Level Denver Center
Sun 02:39:15 PM 44.4042 -103.1058 186° South 487 560 31,000  Level Denver Center
Sun 02:40:17 PM 44.2697 -103.1281 187° South 488 562 31,000  Level Denver Center
Sun 02:41:19 PM 44.1178 -103.1503 186° South 488 562 31,000  Level Denver Center
Sun 02:42:21 PM 43.9686 -103.1764 187° South 485 558 31,000  Level Denver Center
Sun 02:43:23 PM 43.8378 -103.1936 185° South 490 564 31,000  Level Denver Center
Sun 02:44:25 PM 43.6858 -103.2158 186° South 490 564 31,000  Level Denver Center
Sun 02:45:27 PM 43.5561 -103.2358 186° South 490 564 31,000  Level Denver Center
Sun 02:46:29 PM 43.4261 -103.2544 186° South 490 564 31,000  Level Denver Center
Sun 02:47:32 PM 43.2753 -103.2781 187° South 489 563 31,000  Level Denver Center
Sun 02:48:34 PM 43.1439 -103.2972 186° South 493 567 31,000  Level Denver Center
Sun 02:49:36 PM 42.9900 -103.3208 186° South 495 570 31,000  Level Denver Center
Sun 02:50:38 PM 42.8586 -103.3403 186° South 495 570 31,000  Level Denver Center
Sun 02:51:40 PM 42.7042 -103.3636 186° South 497 572 31,000  Level Denver Center
Sun 02:52:42 PM 42.5708 -103.3819 186° South 501 577 31,000  Level Denver Center
Sun 02:53:44 PM 42.4158 -103.4047 186° South 500 575 31,000  Level Denver Center
Sun 02:54:46 PM 42.2847 -103.4239 186° South 495 570 31,000  Level Denver Center
Sun 02:55:48 PM 42.1514 -103.4447 187° South 500 575 31,000  Level Denver Center
Sun 02:56:50 PM 41.9947 -103.4678 186° South 504 580 31,000  Level Denver Center
Sun 02:57:52 PM 41.8611 -103.4822 185° South 502 578 31,000  Level Denver Center
Sun 02:58:54 PM 41.7025 -103.4875 181° South 509 586 31,000  Level Denver Center
Sun 02:59:57 PM 41.5664 -103.4900 181° South 508 585 31,000  Level Denver Center
Sun 03:00:58 PM 41.4069 -103.4950 181° South 510 587 31,000  Level Denver Center
Sun 03:02:00 PM 41.2711 -103.4994 181° South 510 587 31,000  Level Denver Center
Sun 03:03:02 PM 41.1133 -103.5019 181° South 507 583 31,000  Level Denver Center
Sun 03:04:04 PM 40.9778 -103.5061 181° South 507 583 31,000 -290 Level Denver Center
Sun 03:05:06 PM 40.8492 -103.5442 193° South 483 556 30,400 -1,161 Descending Denver Center
Sun 03:06:08 PM 40.7264 -103.6064 201° Southwest 473 544 28,600 -2,112 Descending Denver Center
Sun 03:07:11 PM 40.5900 -103.6903 205° Southwest 452 520 26,000 -2,592 Descending Denver Center
Sun 03:08:13 PM 40.5094 -103.7942 224° Southwest 409 471 23,200 -2,661 Descending Denver Center
Sun 03:09:15 PM 40.4297 -103.9033 226° Southwest 417 480 20,500 -1,548 Descending Denver Center
Sun 03:10:17 PM 40.3569 -104.0053 227° Southwest 355 409 20,000 -823 Descending Denver Center
Sun 03:11:19 PM 40.2831 -104.0839 219° Southwest 344 396 18,800 -1,452 Descending Denver Center
Sun 03:12:21 PM 40.2053 -104.1700 220° Southwest 343 395 17,000 -1,694 Descending Denver Center
Sun 03:13:23 PM 40.1344 -104.2453 219° Southwest 332 382 15,300 -1,548 Descending Denver Center
Sun 03:14:25 PM 40.0639 -104.3225 220° Southwest 334 384 13,800 -1,113 Descending Denver Center
Sun 03:15:27 PM 39.9931 -104.3992 220° Southwest 311 358 13,000 -581 Descending Denver Center
Sun 03:16:29 PM 39.9278 -104.4697 220° Southwest 304 350 12,600 -871 Descending Denver Center
Sun 03:17:31 PM 39.8464 -104.4994 196° South 286 329 11,200 -823 Descending Denver Center
Sun 03:18:33 PM 39.7744 -104.5014 181° South 254 292 10,900 -871 Descending Denver Center
Sun 03:19:35 PM 39.7047 -104.5033 181° South 249 287 9,400 -1,355 Descending Denver Center
Sun 03:20:37 PM 39.6594 -104.5503 219° Southwest 226 260 8,100 -919 Descending Denver Center
Sun 03:21:39 PM 39.6858 -104.6183 297° West 224 258 7,500 -532 Descending Denver Center
Sun 03:22:41 PM 39.7458 -104.6419 343° North 211 243 7,000 -672 Descending Denver Center
Sun 03:23:44 PM 39.7939 -104.6425 359° North 172 198 6,100 -768 Descending Denver Center
Sun 03:24:46 PM 39.8403 -104.6417 North 152 175 5,400 -677 Descending Denver Center
Sun 03:26:00 PM 39.8500 -104.6667 North  Level FlightAware
Sun 03:33:00 PM 39.8617 -104.6732 North  Level Estimated
Sun 03:34:00 PM 39.8617 -104.6732 North  Level Estimated
Sun 03:35:00 PM 39.8617 -104.6732 North  Level Estimated

Login

Don't have an account? Register now (free) for customized features, flight alerts, and more!